createdAt,value
2019-06-26T00:01:07.881Z,4.40
2019-06-26T00:03:38.749Z,4.20
2019-06-26T00:06:09.183Z,4.27
2019-06-26T00:08:39.542Z,4.47
2019-06-26T00:11:09.990Z,4.67
2019-06-26T00:13:40.713Z,4.60
2019-06-26T00:16:11.385Z,3.92
2019-06-26T00:18:42.002Z,4.43
2019-06-26T00:21:12.882Z,4.27
2019-06-26T00:23:43.437Z,5.15
2019-06-26T00:26:13.769Z,4.80
2019-06-26T00:28:44.513Z,5.10
2019-06-26T00:31:15.041Z,5.03
2019-06-26T00:33:45.919Z,5.17
2019-06-26T00:36:16.552Z,5.63
2019-06-26T00:38:47.131Z,5.47
2019-06-26T00:41:18.115Z,4.93
2019-06-26T00:43:49.093Z,4.83
2019-06-26T00:46:19.481Z,4.20
2019-06-26T00:48:50.489Z,5.33
2019-06-26T00:51:21.170Z,5.43
2019-06-26T00:53:51.618Z,4.97
2019-06-26T00:56:22.108Z,5.40
2019-06-26T00:58:52.526Z,5.23
2019-06-26T01:01:23.256Z,4.90
2019-06-26T01:03:55.291Z,5.77
2019-06-26T01:06:44.246Z,5.20
2019-06-26T01:09:15.339Z,5.10
2019-06-26T01:11:45.746Z,5.70
2019-06-26T01:14:16.183Z,5.70
2019-06-26T01:16:46.921Z,5.30
2019-06-26T01:19:17.521Z,5.43
2019-06-26T01:21:48.397Z,5.70
2019-06-26T01:24:20.589Z,5.58
2019-06-26T01:26:51.220Z,5.60
2019-06-26T01:29:21.979Z,5.60
2019-06-26T01:31:52.302Z,5.60
2019-06-26T01:34:23.020Z,6.13
2019-06-26T01:36:53.530Z,5.42
2019-06-26T01:39:25.574Z,5.67
2019-06-26T01:41:55.942Z,5.37
2019-06-26T01:44:26.932Z,5.23
2019-06-26T01:46:57.283Z,6.20
2019-06-26T01:49:28.293Z,5.50
2019-06-26T01:51:58.882Z,6.20
2019-06-26T01:54:30.199Z,5.93
2019-06-26T01:57:00.505Z,5.73
2019-06-26T01:59:31.038Z,5.60
2019-06-26T02:02:01.470Z,5.78
2019-06-26T02:04:31.918Z,5.23
2019-06-26T02:07:02.295Z,5.30
2019-06-26T02:09:33.238Z,5.93
2019-06-26T02:12:03.830Z,5.47
2019-06-26T02:14:34.204Z,5.30
2019-06-26T02:17:05.323Z,5.67
2019-06-26T02:19:35.739Z,5.37
2019-06-26T02:22:06.339Z,5.90
2019-06-26T02:24:37.110Z,5.60
2019-06-26T02:27:07.519Z,5.83
2019-06-26T02:29:37.922Z,5.33
2019-06-26T02:32:08.318Z,5.47
2019-06-26T02:34:38.805Z,5.85
2019-06-26T02:37:09.414Z,6.10
2019-06-26T02:39:41.291Z,6.50
2019-06-26T02:42:12.310Z,5.63
2019-06-26T02:44:52.946Z,5.90
2019-06-26T02:47:20.307Z,7.15
2019-06-26T02:49:47.019Z,5.57
2019-06-26T02:52:17.913Z,6.27
2019-06-26T02:54:48.519Z,5.30
2019-06-26T02:57:18.911Z,6.10
2019-06-26T02:59:49.329Z,6.23
2019-06-26T03:02:20.616Z,6.30
2019-06-26T03:04:50.994Z,6.20
2019-06-26T03:07:22.192Z,5.73
2019-06-26T03:09:52.989Z,6.57
2019-06-26T03:12:23.361Z,7.03
2019-06-26T03:15:08.175Z,5.77
2019-06-26T03:17:27.036Z,6.67
2019-06-26T03:19:57.841Z,6.60
2019-06-26T03:22:28.177Z,6.60
2019-06-26T03:24:58.606Z,6.20
2019-06-26T03:27:29.040Z,7.60
2019-06-26T03:29:59.397Z,6.03
2019-06-26T03:32:29.829Z,6.22
2019-06-26T03:35:00.873Z,6.43
2019-06-26T03:37:31.181Z,7.33
2019-06-26T03:40:02.259Z,6.93
2019-06-26T03:42:32.608Z,7.10
2019-06-26T03:45:03.105Z,6.60
2019-06-26T03:47:33.503Z,6.00
2019-06-26T03:50:04.485Z,7.17
2019-06-26T03:52:35.150Z,7.47
2019-06-26T03:55:05.864Z,6.90
2019-06-26T03:57:36.534Z,6.90
2019-06-26T04:00:07.658Z,6.80
2019-06-26T04:02:38.207Z,6.67
2019-06-26T04:05:09.338Z,6.47
2019-06-26T04:07:39.934Z,7.43
2019-06-26T04:10:10.716Z,6.50
2019-06-26T04:12:41.298Z,7.63
2019-06-26T04:15:11.780Z,7.30
2019-06-26T04:17:42.608Z,7.23
2019-06-26T04:20:13.142Z,6.57
2019-06-26T04:22:43.647Z,6.72
2019-06-26T04:25:14.549Z,6.93
2019-06-26T04:27:44.873Z,7.40
2019-06-26T04:30:15.689Z,6.47
2019-06-26T04:32:45.984Z,7.27
2019-06-26T04:35:16.434Z,7.10
2019-06-26T04:37:46.932Z,6.93
2019-06-26T04:40:20.373Z,7.00
2019-06-26T04:42:49.537Z,6.87
2019-06-26T04:45:20.463Z,6.73
2019-06-26T04:47:51.063Z,6.33
2019-06-26T04:50:21.793Z,6.60
2019-06-26T04:52:52.662Z,6.83
2019-06-26T04:55:23.145Z,6.40
2019-06-26T04:57:53.584Z,6.37
2019-06-26T05:00:25.065Z,6.63
2019-06-26T05:02:56.026Z,6.90
2019-06-26T05:05:39.045Z,7.17
2019-06-26T05:07:59.374Z,6.20
2019-06-26T05:10:30.052Z,7.17
2019-06-26T05:13:00.972Z,6.20
2019-06-26T05:15:31.558Z,6.80
2019-06-26T05:18:01.897Z,6.50
2019-06-26T05:20:32.219Z,7.03
2019-06-26T05:23:02.883Z,6.20
2019-06-26T05:25:33.517Z,6.40
2019-06-26T05:28:03.956Z,6.27
2019-06-26T05:30:34.543Z,7.00
2019-06-26T05:33:05.184Z,6.22
2019-06-26T05:35:35.797Z,6.05
2019-06-26T05:38:06.953Z,6.35
2019-06-26T05:40:38.362Z,6.62
2019-06-26T05:43:08.988Z,5.62
2019-06-26T05:45:39.692Z,6.12
2019-06-26T05:48:10.432Z,6.28
2019-06-26T05:50:40.775Z,6.75
2019-06-26T05:53:11.971Z,6.10
2019-06-26T05:55:42.349Z,6.73
2019-06-26T05:58:12.922Z,6.70
2019-06-26T06:00:43.553Z,6.37
2019-06-26T06:03:14.409Z,6.08
2019-06-26T06:05:46.201Z,6.80
2019-06-26T06:08:16.545Z,6.27
2019-06-26T06:10:46.928Z,6.42
2019-06-26T06:13:17.584Z,5.28
2019-06-26T06:15:48.074Z,6.10
2019-06-26T06:18:18.702Z,6.12
2019-06-26T06:20:49.596Z,8.00
2019-06-26T06:23:19.937Z,6.40
2019-06-26T06:25:50.915Z,5.85
2019-06-26T06:28:21.560Z,6.58
2019-06-26T06:30:52.246Z,7.40
2019-06-26T06:33:22.820Z,6.95
2019-06-26T06:35:53.408Z,6.72
2019-06-26T06:38:23.759Z,5.47
2019-06-26T06:40:54.158Z,6.50
2019-06-26T06:43:24.976Z,6.33
2019-06-26T06:45:56.066Z,6.22
2019-06-26T06:48:26.997Z,6.25
2019-06-26T06:50:57.352Z,6.12
2019-06-26T06:53:27.934Z,6.25
2019-06-26T06:55:58.285Z,6.08
2019-06-26T06:58:30.231Z,6.60
2019-06-26T07:01:00.838Z,6.58
2019-06-26T07:03:31.165Z,5.90
2019-06-26T07:06:01.640Z,6.00
2019-06-26T07:08:32.280Z,6.25
2019-06-26T07:11:02.728Z,5.87
2019-06-26T07:13:33.078Z,6.10
2019-06-26T07:16:03.406Z,6.55
2019-06-26T07:18:33.928Z,6.83
2019-06-26T07:21:04.360Z,5.80
2019-06-26T07:23:35.235Z,6.55
2019-06-26T07:26:05.645Z,6.05
2019-06-26T07:28:36.165Z,5.90
2019-06-26T07:31:07.124Z,5.60
2019-06-26T07:33:37.863Z,5.85
2019-06-26T07:36:08.293Z,6.75
2019-06-26T07:38:39.199Z,6.23
2019-06-26T07:41:09.966Z,5.67
2019-06-26T07:43:42.015Z,5.70
2019-06-26T07:46:12.948Z,5.50
2019-06-26T07:48:43.594Z,6.07
2019-06-26T07:51:14.069Z,6.55
2019-06-26T07:53:44.436Z,5.60
2019-06-26T07:56:15.323Z,6.22
2019-06-26T07:58:46.216Z,5.00
2019-06-26T08:01:16.546Z,5.50
2019-06-26T08:03:46.898Z,5.17
2019-06-26T08:06:17.492Z,6.87
2019-06-26T08:08:47.870Z,6.10
2019-06-26T08:11:18.299Z,6.65
2019-06-26T08:13:48.975Z,6.20
2019-06-26T08:16:19.289Z,5.90
2019-06-26T08:18:49.655Z,7.00
2019-06-26T08:21:20.059Z,5.67
2019-06-26T08:23:50.418Z,6.40
2019-06-26T08:26:21.056Z,5.75
2019-06-26T08:28:52.193Z,6.00
2019-06-26T08:31:23.041Z,5.92
2019-06-26T08:33:53.733Z,5.62
2019-06-26T08:36:24.595Z,6.03
2019-06-26T08:38:55.210Z,6.58
2019-06-26T08:41:25.835Z,5.83
2019-06-26T08:43:56.711Z,5.92
2019-06-26T08:46:27.265Z,5.58
2019-06-26T08:48:58.257Z,6.50
2019-06-26T08:51:28.605Z,5.95
2019-06-26T08:53:59.162Z,5.87
2019-06-26T08:56:29.516Z,6.70
2019-06-26T08:59:00.086Z,7.05
2019-06-26T09:01:30.963Z,6.53
2019-06-26T09:04:01.314Z,7.05
2019-06-26T09:06:33.641Z,6.03
2019-06-26T09:09:04.571Z,6.95
2019-06-26T09:11:35.114Z,6.78
2019-06-26T09:14:06.531Z,6.53
2019-06-26T09:16:37.090Z,6.25
2019-06-26T09:19:07.665Z,7.25
2019-06-26T09:21:38.027Z,6.47
2019-06-26T09:24:09.334Z,6.47
2019-06-26T09:26:39.677Z,6.17
2019-06-26T09:29:10.028Z,6.58
2019-06-26T09:31:40.344Z,6.67
2019-06-26T09:34:10.726Z,6.97
2019-06-26T09:36:41.296Z,6.62
2019-06-26T09:39:11.764Z,6.93
2019-06-26T09:41:42.067Z,7.28
2019-06-26T09:44:12.483Z,6.60
2019-06-26T09:46:43.050Z,6.70
2019-06-26T09:49:13.411Z,7.40
2019-06-26T09:51:43.726Z,6.85
2019-06-26T09:54:14.573Z,6.95
2019-06-26T09:56:44.888Z,7.55
2019-06-26T09:59:15.525Z,7.10
2019-06-26T10:01:45.924Z,7.08
2019-06-26T10:04:16.496Z,7.12
2019-06-26T10:06:46.798Z,7.27
2019-06-26T10:09:17.200Z,7.05
2019-06-26T10:11:47.494Z,7.70
2019-06-26T10:14:18.346Z,7.58
2019-06-26T10:16:49.424Z,7.45
2019-06-26T10:19:20.244Z,7.55
2019-06-26T10:21:50.584Z,7.63
2019-06-26T10:24:22.371Z,6.92
2019-06-26T10:26:52.712Z,7.65
2019-06-26T10:29:23.311Z,7.62
2019-06-26T10:31:53.688Z,7.33
2019-06-26T10:34:24.027Z,6.47
2019-06-26T10:36:54.379Z,6.42
2019-06-26T10:39:24.898Z,7.00
2019-06-26T10:41:55.399Z,7.42
2019-06-26T10:44:26.248Z,6.83
2019-06-26T10:46:56.837Z,7.25
2019-06-26T10:49:27.917Z,7.15
2019-06-26T10:51:58.435Z,7.85
2019-06-26T10:54:29.055Z,7.83
2019-06-26T10:56:59.762Z,8.10
2019-06-26T10:59:30.922Z,7.62
2019-06-26T11:02:01.517Z,7.45
2019-06-26T11:04:32.109Z,6.87
2019-06-26T11:07:02.426Z,7.37
2019-06-26T11:09:32.778Z,8.33
2019-06-26T11:12:03.339Z,7.85
2019-06-26T11:14:33.796Z,6.50
2019-06-26T11:17:04.137Z,7.95
2019-06-26T11:19:43.931Z,6.58
2019-06-26T11:22:07.630Z,7.67
2019-06-26T11:24:38.675Z,7.03
2019-06-26T11:27:09.099Z,6.22
2019-06-26T11:29:40.066Z,7.87
2019-06-26T11:32:10.881Z,7.65
2019-06-26T11:34:41.474Z,6.75
2019-06-26T11:37:11.790Z,7.28
2019-06-26T11:39:42.836Z,7.22
2019-06-26T11:42:13.178Z,7.13
2019-06-26T11:44:43.961Z,7.95
2019-06-26T11:47:14.365Z,6.08
2019-06-26T11:49:59.081Z,6.72
2019-06-26T11:52:17.408Z,6.83
2019-06-26T11:55:01.308Z,7.00
2019-06-26T11:57:20.916Z,5.80
2019-06-26T11:59:51.691Z,6.20
2019-06-26T12:02:23.377Z,6.30
2019-06-26T12:04:53.840Z,6.42
2019-06-26T12:07:24.524Z,7.12
2019-06-26T12:09:55.388Z,6.97
2019-06-26T12:12:26.012Z,6.55
2019-06-26T12:14:56.348Z,6.75
2019-06-26T12:17:26.984Z,7.58
2019-06-26T12:19:57.292Z,7.33
2019-06-26T12:22:29.944Z,6.78
2019-06-26T12:25:00.751Z,7.47
2019-06-26T12:27:31.350Z,5.67
2019-06-26T12:30:01.670Z,5.53
2019-06-26T12:32:41.796Z,5.55
2019-06-26T12:35:06.056Z,4.25
2019-06-26T12:37:38.011Z,4.15
2019-06-26T12:40:08.950Z,2.98
2019-06-26T12:42:39.407Z,3.35
2019-06-26T12:45:10.488Z,3.13
2019-06-26T12:47:40.833Z,4.05
2019-06-26T12:50:12.252Z,4.72
2019-06-26T12:52:42.652Z,4.37
2019-06-26T12:55:13.458Z,4.22
2019-06-26T12:57:43.852Z,4.40
2019-06-26T13:00:14.703Z,4.95
2019-06-26T13:02:45.132Z,5.28
2019-06-26T13:05:16.015Z,4.50
2019-06-26T13:07:46.671Z,4.50
2019-06-26T13:10:18.551Z,4.12
2019-06-26T13:12:48.964Z,4.80
2019-06-26T13:15:19.340Z,4.35
2019-06-26T13:17:49.907Z,5.37
2019-06-26T13:20:20.440Z,5.35
2019-06-26T13:22:52.435Z,4.80
2019-06-26T13:25:22.834Z,4.37
2019-06-26T13:27:53.260Z,4.62
2019-06-26T13:30:31.037Z,4.65
2019-06-26T13:33:01.691Z,5.65
2019-06-26T13:35:32.258Z,4.87
2019-06-26T13:38:02.608Z,4.85
2019-06-26T13:40:33.265Z,4.70
2019-06-26T13:43:04.337Z,5.50
2019-06-26T13:45:35.288Z,5.10
2019-06-26T13:48:05.700Z,5.13
2019-06-26T13:50:36.012Z,5.33
2019-06-26T13:53:06.410Z,5.72
2019-06-26T13:55:36.986Z,4.90
2019-06-26T13:58:07.605Z,5.47
2019-06-26T14:00:38.153Z,5.28
2019-06-26T14:03:08.818Z,5.08
2019-06-26T14:05:40.079Z,4.30
2019-06-26T14:08:10.402Z,4.20
2019-06-26T14:10:40.697Z,4.50
2019-06-26T14:13:11.986Z,3.87
2019-06-26T14:15:42.862Z,4.35
2019-06-26T14:18:13.403Z,3.90
2019-06-26T14:20:44.321Z,4.40
2019-06-26T14:23:15.153Z,4.72
2019-06-26T14:25:45.781Z,4.42
2019-06-26T14:28:19.588Z,5.35
2019-06-26T14:30:48.981Z,5.47
2019-06-26T14:33:19.305Z,5.40
2019-06-26T14:35:49.906Z,4.75
2019-06-26T14:38:20.506Z,4.85
2019-06-26T14:40:50.892Z,5.28
2019-06-26T14:43:21.410Z,5.40
2019-06-26T14:45:52.056Z,4.62
2019-06-26T14:48:22.400Z,5.20
2019-06-26T14:50:52.701Z,5.47
2019-06-26T14:53:23.076Z,5.83
2019-06-26T14:55:53.984Z,5.78
2019-06-26T14:58:25.155Z,5.70
2019-06-26T15:00:55.736Z,5.03
2019-06-26T15:03:26.303Z,5.60
2019-06-26T15:05:56.731Z,5.45
2019-06-26T15:08:27.112Z,5.40
2019-06-26T15:10:58.283Z,4.95
2019-06-26T15:13:28.639Z,5.00
2019-06-26T15:15:59.231Z,4.95
2019-06-26T15:18:29.625Z,4.83
2019-06-26T15:21:00.946Z,4.70
2019-06-26T15:23:31.607Z,5.30
2019-06-26T15:26:02.196Z,5.10
2019-06-26T15:28:32.684Z,5.03
2019-06-26T15:31:02.989Z,5.12
2019-06-26T15:33:36.572Z,4.35
2019-06-26T15:36:05.769Z,4.28
2019-06-26T15:38:36.402Z,5.03
2019-06-26T15:41:06.706Z,4.25
2019-06-26T15:43:37.061Z,4.87
2019-06-26T15:46:08.385Z,4.50
2019-06-26T15:48:38.788Z,5.37
2019-06-26T15:51:09.122Z,4.43
2019-06-26T15:53:39.482Z,4.50
2019-06-26T15:56:10.338Z,4.30
2019-06-26T15:58:40.688Z,4.30
2019-06-26T16:01:11.145Z,4.55
2019-06-26T16:03:41.647Z,3.98
2019-06-26T16:06:11.970Z,4.70
2019-06-26T16:08:42.698Z,4.83
2019-06-26T16:11:13.265Z,4.22
2019-06-26T16:13:44.399Z,4.50
2019-06-26T16:16:15.059Z,4.70
2019-06-26T16:18:49.900Z,4.58
2019-06-26T16:21:20.229Z,5.65
2019-06-26T16:23:50.583Z,4.87
2019-06-26T16:26:20.887Z,4.80
2019-06-26T16:28:51.246Z,5.00
2019-06-26T16:31:21.581Z,4.90
2019-06-26T16:33:51.977Z,4.62
2019-06-26T16:36:22.624Z,4.67
2019-06-26T16:38:53.044Z,4.55
2019-06-26T16:41:24.066Z,3.90
2019-06-26T16:43:54.692Z,4.20
2019-06-26T16:46:25.130Z,3.67
2019-06-26T16:48:55.926Z,4.23
2019-06-26T16:51:26.485Z,4.10
2019-06-26T16:53:56.818Z,4.15
2019-06-26T16:56:27.154Z,4.03
2019-06-26T16:58:58.466Z,4.33
2019-06-26T17:01:29.042Z,5.37
2019-06-26T17:03:59.468Z,4.17
2019-06-26T17:06:31.022Z,4.94
2019-06-26T17:09:01.408Z,4.53
2019-06-26T17:11:33.412Z,4.33
2019-06-26T17:14:04.261Z,4.30
2019-06-26T17:16:34.935Z,4.57
2019-06-26T17:19:05.278Z,4.42
2019-06-26T17:21:35.667Z,4.67
2019-06-26T17:24:06.116Z,4.20
2019-06-26T17:26:36.548Z,3.92
2019-06-26T17:29:08.366Z,3.54
2019-06-26T17:31:40.860Z,4.70
2019-06-26T17:34:11.820Z,4.40
2019-06-26T17:36:43.470Z,4.53
2019-06-26T17:39:14.216Z,4.33
2019-06-26T17:41:45.267Z,3.47
2019-06-26T17:44:15.772Z,3.87
2019-06-26T17:46:46.151Z,4.08
2019-06-26T17:49:16.651Z,3.72
2019-06-26T17:51:47.596Z,3.40
2019-06-26T17:54:18.098Z,3.75
2019-06-26T17:56:48.929Z,3.25
2019-06-26T17:59:19.512Z,3.97
2019-06-26T18:01:49.982Z,3.30
2019-06-26T18:04:20.454Z,3.60
2019-06-26T18:06:51.767Z,3.45
2019-06-26T18:09:22.180Z,3.12
2019-06-26T18:11:53.147Z,3.27
2019-06-26T18:14:23.985Z,3.33
2019-06-26T18:16:54.353Z,3.45
2019-06-26T18:19:24.978Z,3.87
2019-06-26T18:21:56.556Z,3.77
2019-06-26T18:24:27.441Z,3.15
2019-06-26T18:26:58.066Z,3.22
2019-06-26T18:29:28.405Z,3.15
2019-06-26T18:31:59.543Z,3.20
2019-06-26T18:34:30.039Z,2.72
2019-06-26T18:37:00.697Z,3.23
2019-06-26T18:39:31.024Z,3.55
2019-06-26T18:42:01.473Z,3.90
2019-06-26T18:44:32.066Z,3.83
2019-06-26T18:47:02.784Z,4.00
2019-06-26T18:49:33.618Z,3.30
2019-06-26T18:52:07.654Z,2.83
2019-06-26T18:54:36.574Z,3.37
2019-06-26T18:57:07.273Z,3.10
2019-06-26T18:59:37.840Z,3.00
2019-06-26T19:02:08.191Z,2.87
2019-06-26T19:04:38.793Z,2.40
2019-06-26T19:07:09.128Z,2.63
2019-06-26T19:09:39.812Z,3.07
2019-06-26T19:12:10.628Z,3.17
2019-06-26T19:14:41.233Z,2.97
2019-06-26T19:17:11.726Z,3.30
2019-06-26T19:19:42.336Z,3.00
2019-06-26T19:22:13.266Z,2.70
2019-06-26T19:24:43.910Z,3.07
2019-06-26T19:27:14.310Z,3.10
2019-06-26T19:29:44.711Z,3.00
2019-06-26T19:32:15.177Z,3.60
2019-06-26T19:34:46.082Z,3.60
2019-06-26T19:37:16.726Z,2.30
2019-06-26T19:39:48.851Z,2.70
2019-06-26T19:42:19.741Z,2.98
2019-06-26T19:44:50.501Z,3.37
2019-06-26T19:47:21.149Z,2.67
2019-06-26T19:49:53.150Z,2.93
2019-06-26T19:52:23.525Z,3.17
2019-06-26T19:54:54.277Z,3.37
2019-06-26T19:57:24.881Z,4.00
2019-06-26T19:59:55.766Z,3.37
2019-06-26T20:02:26.247Z,4.17
2019-06-26T20:04:57.243Z,3.50
2019-06-26T20:07:28.180Z,3.00
2019-06-26T20:10:01.716Z,2.85
2019-06-26T20:12:31.468Z,3.37
2019-06-26T20:15:02.022Z,3.25
2019-06-26T20:17:32.320Z,3.67
2019-06-26T20:20:04.010Z,3.83
2019-06-26T20:22:34.488Z,3.60
2019-06-26T20:25:05.418Z,3.73
2019-06-26T20:27:36.252Z,3.90
2019-06-26T20:30:09.854Z,3.92
2019-06-26T20:32:39.332Z,4.50
2019-06-26T20:35:10.016Z,4.50
2019-06-26T20:37:40.404Z,4.43
2019-06-26T20:40:11.335Z,4.53
2019-06-26T20:42:41.810Z,3.67
2019-06-26T20:45:12.256Z,4.20
2019-06-26T20:47:43.467Z,3.90
2019-06-26T20:50:13.988Z,3.97
2019-06-26T20:52:44.672Z,3.43
2019-06-26T20:55:15.163Z,4.20
2019-06-26T20:57:45.529Z,3.67
2019-06-26T21:00:16.943Z,4.47
2019-06-26T21:02:47.582Z,4.87
2019-06-26T21:05:18.196Z,4.17
2019-06-26T21:07:48.571Z,4.20
2019-06-26T21:10:23.143Z,3.95
2019-06-26T21:12:53.524Z,4.73
2019-06-26T21:15:23.983Z,4.83
2019-06-26T21:17:54.607Z,5.10
2019-06-26T21:20:25.519Z,4.63
2019-06-26T21:22:56.215Z,4.43
2019-06-26T21:25:27.535Z,4.97
2019-06-26T21:27:58.714Z,4.73
2019-06-26T21:30:29.225Z,5.33
2019-06-26T21:32:59.789Z,5.43
2019-06-26T21:35:31.503Z,5.97
2019-06-26T21:38:02.559Z,6.53
2019-06-26T21:40:33.870Z,5.60
2019-06-26T21:43:04.297Z,5.83
2019-06-26T21:45:34.729Z,5.93
2019-06-26T21:48:05.195Z,6.10
2019-06-26T21:50:36.073Z,5.85
2019-06-26T21:53:06.514Z,5.17
2019-06-26T21:55:38.247Z,5.93
2019-06-26T21:58:26.120Z,5.00
2019-06-26T22:01:14.066Z,4.83
2019-06-26T22:04:02.511Z,4.30
2019-06-26T22:06:37.534Z,3.97
2019-06-26T22:09:21.546Z,4.43
2019-06-26T22:11:52.024Z,3.70
2019-06-26T22:14:22.479Z,3.70
2019-06-26T22:16:53.182Z,3.80
2019-06-26T22:19:24.580Z,3.47
2019-06-26T22:21:55.196Z,3.90
2019-06-26T22:24:26.131Z,2.20
2019-06-26T22:26:56.484Z,3.77
2019-06-26T22:29:27.169Z,3.05
2019-06-26T22:31:57.498Z,2.90
2019-06-26T22:34:28.452Z,2.60
2019-06-26T22:36:59.302Z,3.30
2019-06-26T22:39:30.397Z,2.98
2019-06-26T22:42:01.088Z,2.90
2019-06-26T22:44:31.796Z,2.47
2019-06-26T22:47:02.203Z,3.40
2019-06-26T22:49:32.583Z,2.33
2019-06-26T22:52:03.368Z,2.30
2019-06-26T22:54:33.829Z,2.67
2019-06-26T22:57:04.938Z,2.10
2019-06-26T22:59:35.261Z,1.77
2019-06-26T23:02:05.648Z,1.65
2019-06-26T23:04:36.594Z,2.03
2019-06-26T23:07:07.263Z,2.33
2019-06-26T23:09:37.890Z,1.77
2019-06-26T23:12:08.502Z,1.85
2019-06-26T23:14:39.498Z,1.47
2019-06-26T23:17:10.160Z,1.47
2019-06-26T23:19:40.972Z,1.90
2019-06-26T23:22:12.147Z,1.87
2019-06-26T23:24:42.750Z,1.70
2019-06-26T23:27:14.037Z,2.02
2019-06-26T23:29:45.079Z,1.50
2019-06-26T23:32:15.743Z,1.77
2019-06-26T23:34:46.134Z,1.90
2019-06-26T23:37:16.560Z,1.40
2019-06-26T23:39:46.969Z,1.53
2019-06-26T23:42:17.284Z,1.67
2019-06-26T23:44:47.924Z,1.87
2019-06-26T23:47:18.543Z,1.85
2019-06-26T23:49:48.900Z,1.97
2019-06-26T23:52:19.896Z,1.43
2019-06-26T23:54:50.277Z,1.37
2019-06-26T23:57:20.955Z,2.13
2019-06-26T23:59:51.885Z,1.53
